sensor_id;sensor_type;location;lat;lon;timestamp;P1;durP1;ratioP1;P2;durP2;ratioP2
20559;SDS011;10438;51.454;6.718;2022-07-23T00:00:29;12.98;;;7.43;;
20559;SDS011;10438;51.454;6.718;2022-07-23T00:02:54;12.68;;;8.35;;
20559;SDS011;10438;51.454;6.718;2022-07-23T00:05:20;17.02;;;8.85;;
20559;SDS011;10438;51.454;6.718;2022-07-23T00:07:45;16.08;;;8.60;;
20559;SDS011;10438;51.454;6.718;2022-07-23T00:10:11;15.75;;;7.95;;
20559;SDS011;10438;51.454;6.718;2022-07-23T00:12:37;15.48;;;7.60;;
20559;SDS011;10438;51.454;6.718;2022-07-23T00:15:03;14.20;;;7.60;;
20559;SDS011;10438;51.454;6.718;2022-07-23T00:17:30;11.70;;;7.15;;
20559;SDS011;10438;51.454;6.718;2022-07-23T00:19:55;12.18;;;7.60;;
20559;SDS011;10438;51.454;6.718;2022-07-23T00:22:21;15.18;;;7.85;;
20559;SDS011;10438;51.454;6.718;2022-07-23T00:24:46;11.30;;;7.50;;
20559;SDS011;10438;51.454;6.718;2022-07-23T00:27:12;17.05;;;8.98;;
20559;SDS011;10438;51.454;6.718;2022-07-23T00:29:38;17.25;;;8.45;;
20559;SDS011;10438;51.454;6.718;2022-07-23T00:32:03;13.65;;;8.13;;
20559;SDS011;10438;51.454;6.718;2022-07-23T00:34:29;17.73;;;8.15;;
20559;SDS011;10438;51.454;6.718;2022-07-23T00:36:55;12.85;;;7.88;;
20559;SDS011;10438;51.454;6.718;2022-07-23T00:39:21;16.23;;;8.60;;
20559;SDS011;10438;51.454;6.718;2022-07-23T00:41:47;12.90;;;7.97;;
20559;SDS011;10438;51.454;6.718;2022-07-23T00:44:24;14.60;;;7.85;;
20559;SDS011;10438;51.454;6.718;2022-07-23T00:46:52;11.55;;;7.78;;
20559;SDS011;10438;51.454;6.718;2022-07-23T00:49:23;16.50;;;8.15;;
20559;SDS011;10438;51.454;6.718;2022-07-23T00:51:49;17.20;;;9.30;;
20559;SDS011;10438;51.454;6.718;2022-07-23T00:54:16;11.70;;;7.82;;
20559;SDS011;10438;51.454;6.718;2022-07-23T00:56:43;13.85;;;8.05;;
20559;SDS011;10438;51.454;6.718;2022-07-23T00:59:10;19.75;;;9.07;;
20559;SDS011;10438;51.454;6.718;2022-07-23T01:01:36;16.60;;;8.68;;
20559;SDS011;10438;51.454;6.718;2022-07-23T01:04:02;17.13;;;8.50;;
20559;SDS011;10438;51.454;6.718;2022-07-23T01:06:28;13.20;;;8.60;;
20559;SDS011;10438;51.454;6.718;2022-07-23T01:08:54;15.52;;;9.10;;
20559;SDS011;10438;51.454;6.718;2022-07-23T01:11:20;14.13;;;9.05;;
20559;SDS011;10438;51.454;6.718;2022-07-23T01:13:47;16.20;;;8.88;;
20559;SDS011;10438;51.454;6.718;2022-07-23T01:16:13;14.88;;;8.70;;
20559;SDS011;10438;51.454;6.718;2022-07-23T01:18:38;16.50;;;9.00;;
20559;SDS011;10438;51.454;6.718;2022-07-23T01:21:04;14.80;;;8.70;;
20559;SDS011;10438;51.454;6.718;2022-07-23T01:23:30;17.48;;;9.00;;
20559;SDS011;10438;51.454;6.718;2022-07-23T01:25:56;15.13;;;8.98;;
20559;SDS011;10438;51.454;6.718;2022-07-23T01:28:21;14.23;;;8.57;;
20559;SDS011;10438;51.454;6.718;2022-07-23T01:30:47;14.50;;;8.57;;
20559;SDS011;10438;51.454;6.718;2022-07-23T01:33:13;15.50;;;8.73;;
20559;SDS011;10438;51.454;6.718;2022-07-23T01:35:39;14.60;;;8.30;;
20559;SDS011;10438;51.454;6.718;2022-07-23T01:38:05;11.57;;;8.38;;
20559;SDS011;10438;51.454;6.718;2022-07-23T01:40:30;14.93;;;8.98;;
20559;SDS011;10438;51.454;6.718;2022-07-23T01:42:56;11.10;;;8.57;;
20559;SDS011;10438;51.454;6.718;2022-07-23T01:45:22;18.90;;;9.65;;
20559;SDS011;10438;51.454;6.718;2022-07-23T01:47:48;16.42;;;8.55;;
20559;SDS011;10438;51.454;6.718;2022-07-23T01:50:13;15.48;;;8.68;;
20559;SDS011;10438;51.454;6.718;2022-07-23T01:52:39;15.63;;;8.50;;
20559;SDS011;10438;51.454;6.718;2022-07-23T01:55:05;16.13;;;9.07;;
20559;SDS011;10438;51.454;6.718;2022-07-23T01:57:31;17.50;;;9.65;;
20559;SDS011;10438;51.454;6.718;2022-07-23T01:59:57;18.83;;;10.27;;
20559;SDS011;10438;51.454;6.718;2022-07-23T02:02:22;15.35;;;9.00;;
20559;SDS011;10438;51.454;6.718;2022-07-23T02:04:48;13.77;;;9.18;;
20559;SDS011;10438;51.454;6.718;2022-07-23T02:07:14;17.47;;;9.67;;
20559;SDS011;10438;51.454;6.718;2022-07-23T02:09:39;19.03;;;10.03;;
20559;SDS011;10438;51.454;6.718;2022-07-23T02:12:05;14.02;;;8.93;;
20559;SDS011;10438;51.454;6.718;2022-07-23T02:14:30;16.03;;;9.63;;
20559;SDS011;10438;51.454;6.718;2022-07-23T02:16:56;19.65;;;9.55;;
20559;SDS011;10438;51.454;6.718;2022-07-23T02:19:21;19.37;;;10.10;;
20559;SDS011;10438;51.454;6.718;2022-07-23T02:21:47;15.93;;;9.97;;
20559;SDS011;10438;51.454;6.718;2022-07-23T02:24:13;15.23;;;9.53;;
20559;SDS011;10438;51.454;6.718;2022-07-23T02:26:39;18.00;;;10.17;;
20559;SDS011;10438;51.454;6.718;2022-07-23T02:29:04;17.10;;;10.35;;
20559;SDS011;10438;51.454;6.718;2022-07-23T02:31:30;15.35;;;10.98;;
20559;SDS011;10438;51.454;6.718;2022-07-23T02:33:56;15.47;;;11.13;;
20559;SDS011;10438;51.454;6.718;2022-07-23T02:36:21;19.83;;;11.23;;
20559;SDS011;10438;51.454;6.718;2022-07-23T02:38:47;17.10;;;11.25;;
20559;SDS011;10438;51.454;6.718;2022-07-23T02:41:13;16.42;;;10.88;;
20559;SDS011;10438;51.454;6.718;2022-07-23T02:43:38;15.37;;;10.17;;
20559;SDS011;10438;51.454;6.718;2022-07-23T02:46:04;17.73;;;10.83;;
20559;SDS011;10438;51.454;6.718;2022-07-23T02:48:29;22.88;;;10.52;;
20559;SDS011;10438;51.454;6.718;2022-07-23T02:50:55;16.90;;;10.18;;
20559;SDS011;10438;51.454;6.718;2022-07-23T02:53:21;18.40;;;10.18;;
20559;SDS011;10438;51.454;6.718;2022-07-23T02:55:49;20.38;;;10.55;;
20559;SDS011;10438;51.454;6.718;2022-07-23T02:58:15;18.30;;;10.43;;
20559;SDS011;10438;51.454;6.718;2022-07-23T03:00:41;18.90;;;11.67;;
20559;SDS011;10438;51.454;6.718;2022-07-23T03:03:06;17.23;;;10.87;;
20559;SDS011;10438;51.454;6.718;2022-07-23T03:05:33;19.77;;;10.20;;
20559;SDS011;10438;51.454;6.718;2022-07-23T03:07:59;15.77;;;11.00;;
20559;SDS011;10438;51.454;6.718;2022-07-23T03:10:24;18.38;;;11.52;;
20559;SDS011;10438;51.454;6.718;2022-07-23T03:12:50;19.73;;;11.00;;
20559;SDS011;10438;51.454;6.718;2022-07-23T03:15:16;15.13;;;10.80;;
20559;SDS011;10438;51.454;6.718;2022-07-23T03:17:41;16.83;;;10.93;;
20559;SDS011;10438;51.454;6.718;2022-07-23T03:20:07;19.50;;;11.30;;
20559;SDS011;10438;51.454;6.718;2022-07-23T03:22:33;17.30;;;11.63;;
20559;SDS011;10438;51.454;6.718;2022-07-23T03:24:58;18.07;;;10.27;;
20559;SDS011;10438;51.454;6.718;2022-07-23T03:27:25;20.33;;;11.33;;
20559;SDS011;10438;51.454;6.718;2022-07-23T03:29:53;18.33;;;10.87;;
20559;SDS011;10438;51.454;6.718;2022-07-23T03:32:20;15.87;;;10.07;;
20559;SDS011;10438;51.454;6.718;2022-07-23T03:34:46;17.63;;;10.60;;
20559;SDS011;10438;51.454;6.718;2022-07-23T03:37:12;16.17;;;10.70;;
20559;SDS011;10438;51.454;6.718;2022-07-23T03:39:38;17.70;;;10.53;;
20559;SDS011;10438;51.454;6.718;2022-07-23T03:42:03;18.77;;;11.17;;
20559;SDS011;10438;51.454;6.718;2022-07-23T03:44:29;15.90;;;10.63;;
20559;SDS011;10438;51.454;6.718;2022-07-23T03:46:55;15.43;;;10.03;;
20559;SDS011;10438;51.454;6.718;2022-07-23T03:49:20;18.87;;;11.37;;
20559;SDS011;10438;51.454;6.718;2022-07-23T03:51:46;21.00;;;12.07;;
20559;SDS011;10438;51.454;6.718;2022-07-23T03:54:12;14.13;;;10.13;;
20559;SDS011;10438;51.454;6.718;2022-07-23T03:56:37;16.63;;;10.10;;
20559;SDS011;10438;51.454;6.718;2022-07-23T03:59:03;17.23;;;10.97;;
20559;SDS011;10438;51.454;6.718;2022-07-23T04:01:28;19.37;;;10.60;;
20559;SDS011;10438;51.454;6.718;2022-07-23T04:03:54;16.83;;;10.70;;
20559;SDS011;10438;51.454;6.718;2022-07-23T04:06:19;19.73;;;11.30;;
20559;SDS011;10438;51.454;6.718;2022-07-23T04:08:45;16.63;;;11.03;;
20559;SDS011;10438;51.454;6.718;2022-07-23T04:11:10;18.50;;;10.53;;
20559;SDS011;10438;51.454;6.718;2022-07-23T04:13:36;16.33;;;9.87;;
20559;SDS011;10438;51.454;6.718;2022-07-23T04:16:02;16.63;;;10.77;;
20559;SDS011;10438;51.454;6.718;2022-07-23T04:18:28;14.07;;;9.67;;
20559;SDS011;10438;51.454;6.718;2022-07-23T04:20:54;18.07;;;10.57;;
20559;SDS011;10438;51.454;6.718;2022-07-23T04:23:20;18.97;;;10.20;;
20559;SDS011;10438;51.454;6.718;2022-07-23T04:25:45;17.43;;;10.40;;
20559;SDS011;10438;51.454;6.718;2022-07-23T04:28:11;17.47;;;10.93;;
20559;SDS011;10438;51.454;6.718;2022-07-23T04:30:37;23.57;;;10.80;;
20559;SDS011;10438;51.454;6.718;2022-07-23T04:33:02;21.97;;;11.73;;
20559;SDS011;10438;51.454;6.718;2022-07-23T04:35:31;19.13;;;11.93;;
20559;SDS011;10438;51.454;6.718;2022-07-23T04:37:57;17.70;;;11.70;;
20559;SDS011;10438;51.454;6.718;2022-07-23T04:40:23;21.50;;;12.23;;
20559;SDS011;10438;51.454;6.718;2022-07-23T04:42:48;20.37;;;11.97;;
20559;SDS011;10438;51.454;6.718;2022-07-23T04:45:14;23.87;;;12.30;;
20559;SDS011;10438;51.454;6.718;2022-07-23T04:47:39;20.03;;;11.87;;
20559;SDS011;10438;51.454;6.718;2022-07-23T04:50:05;22.47;;;12.43;;
20559;SDS011;10438;51.454;6.718;2022-07-23T04:52:31;24.07;;;13.67;;
20559;SDS011;10438;51.454;6.718;2022-07-23T04:54:56;21.40;;;12.90;;
20559;SDS011;10438;51.454;6.718;2022-07-23T04:57:22;22.93;;;13.37;;
20559;SDS011;10438;51.454;6.718;2022-07-23T04:59:47;21.57;;;12.67;;
20559;SDS011;10438;51.454;6.718;2022-07-23T05:02:13;18.20;;;13.10;;
20559;SDS011;10438;51.454;6.718;2022-07-23T05:04:38;22.03;;;13.33;;
20559;SDS011;10438;51.454;6.718;2022-07-23T05:07:04;18.57;;;13.37;;
20559;SDS011;10438;51.454;6.718;2022-07-23T05:09:29;22.13;;;13.23;;
20559;SDS011;10438;51.454;6.718;2022-07-23T05:11:55;20.80;;;12.70;;
20559;SDS011;10438;51.454;6.718;2022-07-23T05:14:20;22.10;;;13.40;;
20559;SDS011;10438;51.454;6.718;2022-07-23T05:16:46;20.90;;;13.73;;
20559;SDS011;10438;51.454;6.718;2022-07-23T05:19:11;17.80;;;13.17;;
20559;SDS011;10438;51.454;6.718;2022-07-23T05:21:37;22.40;;;13.87;;
20559;SDS011;10438;51.454;6.718;2022-07-23T05:24:03;22.60;;;13.43;;
20559;SDS011;10438;51.454;6.718;2022-07-23T05:26:29;23.07;;;14.40;;
20559;SDS011;10438;51.454;6.718;2022-07-23T05:28:54;17.80;;;13.20;;
20559;SDS011;10438;51.454;6.718;2022-07-23T05:31:20;22.23;;;15.50;;
20559;SDS011;10438;51.454;6.718;2022-07-23T05:33:45;21.70;;;14.57;;
20559;SDS011;10438;51.454;6.718;2022-07-23T05:36:11;24.57;;;14.60;;
20559;SDS011;10438;51.454;6.718;2022-07-23T05:38:36;21.13;;;14.07;;
20559;SDS011;10438;51.454;6.718;2022-07-23T05:41:02;23.93;;;14.87;;
20559;SDS011;10438;51.454;6.718;2022-07-23T05:43:27;22.70;;;15.07;;
20559;SDS011;10438;51.454;6.718;2022-07-23T05:45:53;25.70;;;14.27;;
20559;SDS011;10438;51.454;6.718;2022-07-23T05:48:19;25.53;;;14.37;;
20559;SDS011;10438;51.454;6.718;2022-07-23T05:50:46;19.03;;;14.13;;
20559;SDS011;10438;51.454;6.718;2022-07-23T05:53:12;22.00;;;14.80;;
20559;SDS011;10438;51.454;6.718;2022-07-23T05:55:37;23.97;;;14.40;;
20559;SDS011;10438;51.454;6.718;2022-07-23T05:58:03;24.20;;;14.57;;
20559;SDS011;10438;51.454;6.718;2022-07-23T06:00:29;22.95;;;13.77;;
20559;SDS011;10438;51.454;6.718;2022-07-23T06:02:55;19.97;;;12.80;;
20559;SDS011;10438;51.454;6.718;2022-07-23T06:05:21;19.53;;;13.57;;
20559;SDS011;10438;51.454;6.718;2022-07-23T06:07:47;22.67;;;13.25;;
20559;SDS011;10438;51.454;6.718;2022-07-23T06:10:13;21.42;;;13.57;;
20559;SDS011;10438;51.454;6.718;2022-07-23T06:12:38;18.98;;;12.98;;
20559;SDS011;10438;51.454;6.718;2022-07-23T06:15:04;24.98;;;14.18;;
20559;SDS011;10438;51.454;6.718;2022-07-23T06:17:30;24.40;;;14.55;;
20559;SDS011;10438;51.454;6.718;2022-07-23T06:19:56;20.38;;;13.13;;
20559;SDS011;10438;51.454;6.718;2022-07-23T06:22:22;22.83;;;13.45;;
20559;SDS011;10438;51.454;6.718;2022-07-23T06:24:48;20.27;;;14.10;;
20559;SDS011;10438;51.454;6.718;2022-07-23T06:27:14;31.13;;;15.15;;
20559;SDS011;10438;51.454;6.718;2022-07-23T06:29:39;25.23;;;14.80;;
20559;SDS011;10438;51.454;6.718;2022-07-23T06:32:05;27.65;;;14.50;;
20559;SDS011;10438;51.454;6.718;2022-07-23T06:34:31;24.15;;;15.77;;
20559;SDS011;10438;51.454;6.718;2022-07-23T06:36:57;27.48;;;15.65;;
20559;SDS011;10438;51.454;6.718;2022-07-23T06:39:23;23.27;;;14.85;;
20559;SDS011;10438;51.454;6.718;2022-07-23T06:41:48;27.63;;;14.50;;
20559;SDS011;10438;51.454;6.718;2022-07-23T06:44:15;22.30;;;14.00;;
20559;SDS011;10438;51.454;6.718;2022-07-23T06:46:41;22.17;;;13.95;;
20559;SDS011;10438;51.454;6.718;2022-07-23T06:49:06;25.80;;;14.77;;
20559;SDS011;10438;51.454;6.718;2022-07-23T06:51:32;28.30;;;15.48;;
20559;SDS011;10438;51.454;6.718;2022-07-23T06:53:57;18.17;;;12.10;;
20559;SDS011;10438;51.454;6.718;2022-07-23T06:56:23;18.40;;;10.40;;
20559;SDS011;10438;51.454;6.718;2022-07-23T06:58:49;16.77;;;10.00;;
20559;SDS011;10438;51.454;6.718;2022-07-23T07:01:14;15.93;;;9.52;;
20559;SDS011;10438;51.454;6.718;2022-07-23T07:03:40;15.63;;;10.30;;
20559;SDS011;10438;51.454;6.718;2022-07-23T07:06:05;16.10;;;9.95;;
20559;SDS011;10438;51.454;6.718;2022-07-23T07:08:31;15.38;;;10.00;;
20559;SDS011;10438;51.454;6.718;2022-07-23T07:10:56;17.52;;;10.52;;
20559;SDS011;10438;51.454;6.718;2022-07-23T07:13:22;15.80;;;9.93;;
20559;SDS011;10438;51.454;6.718;2022-07-23T07:15:47;21.80;;;13.10;;
20559;SDS011;10438;51.454;6.718;2022-07-23T07:18:13;16.50;;;9.27;;
20559;SDS011;10438;51.454;6.718;2022-07-23T07:20:38;14.63;;;8.43;;
20559;SDS011;10438;51.454;6.718;2022-07-23T07:23:04;16.35;;;8.25;;
20559;SDS011;10438;51.454;6.718;2022-07-23T07:25:29;18.75;;;13.23;;
20559;SDS011;10438;51.454;6.718;2022-07-23T07:27:55;25.48;;;9.82;;
20559;SDS011;10438;51.454;6.718;2022-07-23T07:30:21;14.70;;;8.95;;
20559;SDS011;10438;51.454;6.718;2022-07-23T07:32:46;13.55;;;7.32;;
20559;SDS011;10438;51.454;6.718;2022-07-23T07:35:12;11.88;;;7.03;;
20559;SDS011;10438;51.454;6.718;2022-07-23T07:37:38;12.52;;;6.10;;
20559;SDS011;10438;51.454;6.718;2022-07-23T07:40:03;15.90;;;6.70;;
20559;SDS011;10438;51.454;6.718;2022-07-23T07:42:29;11.98;;;6.40;;
20559;SDS011;10438;51.454;6.718;2022-07-23T07:44:57;16.63;;;8.55;;
20559;SDS011;10438;51.454;6.718;2022-07-23T07:47:22;18.88;;;12.38;;
20559;SDS011;10438;51.454;6.718;2022-07-23T07:49:48;14.15;;;6.32;;
20559;SDS011;10438;51.454;6.718;2022-07-23T07:52:13;10.50;;;5.97;;
20559;SDS011;10438;51.454;6.718;2022-07-23T07:54:39;11.05;;;4.88;;
20559;SDS011;10438;51.454;6.718;2022-07-23T07:57:05;9.55;;;4.60;;
20559;SDS011;10438;51.454;6.718;2022-07-23T07:59:30;10.30;;;5.43;;
20559;SDS011;10438;51.454;6.718;2022-07-23T08:01:56;7.93;;;4.05;;
20559;SDS011;10438;51.454;6.718;2022-07-23T08:04:21;10.43;;;4.55;;
20559;SDS011;10438;51.454;6.718;2022-07-23T08:06:47;10.77;;;5.72;;
20559;SDS011;10438;51.454;6.718;2022-07-23T08:09:12;12.32;;;5.13;;
20559;SDS011;10438;51.454;6.718;2022-07-23T08:11:38;8.88;;;4.30;;
20559;SDS011;10438;51.454;6.718;2022-07-23T08:14:03;9.38;;;4.53;;
20559;SDS011;10438;51.454;6.718;2022-07-23T08:16:29;9.68;;;4.78;;
20559;SDS011;10438;51.454;6.718;2022-07-23T08:18:54;8.55;;;4.15;;
20559;SDS011;10438;51.454;6.718;2022-07-23T08:21:20;9.35;;;4.80;;
20559;SDS011;10438;51.454;6.718;2022-07-23T08:23:45;10.10;;;4.75;;
20559;SDS011;10438;51.454;6.718;2022-07-23T08:26:11;10.75;;;5.13;;
20559;SDS011;10438;51.454;6.718;2022-07-23T08:28:37;9.45;;;5.38;;
20559;SDS011;10438;51.454;6.718;2022-07-23T08:31:02;10.23;;;5.13;;
20559;SDS011;10438;51.454;6.718;2022-07-23T08:33:30;7.40;;;4.50;;
20559;SDS011;10438;51.454;6.718;2022-07-23T08:35:56;8.75;;;5.50;;
20559;SDS011;10438;51.454;6.718;2022-07-23T08:38:22;9.52;;;4.72;;
20559;SDS011;10438;51.454;6.718;2022-07-23T08:40:50;6.95;;;4.20;;
20559;SDS011;10438;51.454;6.718;2022-07-23T08:43:18;9.68;;;4.22;;
20559;SDS011;10438;51.454;6.718;2022-07-23T08:45:49;8.60;;;4.10;;
20559;SDS011;10438;51.454;6.718;2022-07-23T08:48:20;8.98;;;3.70;;
20559;SDS011;10438;51.454;6.718;2022-07-23T08:50:51;8.23;;;3.97;;
20559;SDS011;10438;51.454;6.718;2022-07-23T08:53:19;9.55;;;4.00;;
20559;SDS011;10438;51.454;6.718;2022-07-23T08:55:47;9.32;;;5.38;;
20559;SDS011;10438;51.454;6.718;2022-07-23T08:58:24;8.57;;;4.43;;
20559;SDS011;10438;51.454;6.718;2022-07-23T09:00:50;5.65;;;2.80;;
20559;SDS011;10438;51.454;6.718;2022-07-23T09:03:20;7.10;;;3.10;;
20559;SDS011;10438;51.454;6.718;2022-07-23T09:05:47;12.00;;;3.20;;
20559;SDS011;10438;51.454;6.718;2022-07-23T09:16:18;8.48;;;3.10;;
20559;SDS011;10438;51.454;6.718;2022-07-23T09:18:52;6.25;;;2.90;;
20559;SDS011;10438;51.454;6.718;2022-07-23T09:24:05;6.22;;;2.75;;
20559;SDS011;10438;51.454;6.718;2022-07-23T09:26:39;7.28;;;2.88;;
20559;SDS011;10438;51.454;6.718;2022-07-23T09:29:13;6.95;;;2.67;;
20559;SDS011;10438;51.454;6.718;2022-07-23T09:31:52;7.88;;;3.05;;
20559;SDS011;10438;51.454;6.718;2022-07-23T09:34:20;6.88;;;2.63;;
20559;SDS011;10438;51.454;6.718;2022-07-23T09:36:47;7.53;;;2.63;;
20559;SDS011;10438;51.454;6.718;2022-07-23T09:39:14;5.43;;;2.28;;
20559;SDS011;10438;51.454;6.718;2022-07-23T09:41:46;9.52;;;2.92;;
20559;SDS011;10438;51.454;6.718;2022-07-23T09:44:14;5.82;;;3.30;;
20559;SDS011;10438;51.454;6.718;2022-07-23T09:46:48;9.57;;;6.03;;
20559;SDS011;10438;51.454;6.718;2022-07-23T09:49:16;7.28;;;3.40;;
20559;SDS011;10438;51.454;6.718;2022-07-23T09:51:44;6.03;;;2.40;;
20559;SDS011;10438;51.454;6.718;2022-07-23T09:54:21;5.82;;;3.13;;
20559;SDS011;10438;51.454;6.718;2022-07-23T09:56:48;5.85;;;2.67;;
20559;SDS011;10438;51.454;6.718;2022-07-23T09:59:15;5.65;;;2.90;;
20559;SDS011;10438;51.454;6.718;2022-07-23T10:01:44;8.63;;;2.50;;
20559;SDS011;10438;51.454;6.718;2022-07-23T10:04:10;4.68;;;2.50;;
20559;SDS011;10438;51.454;6.718;2022-07-23T10:06:37;6.18;;;3.25;;
20559;SDS011;10438;51.454;6.718;2022-07-23T10:09:04;8.50;;;2.72;;
20559;SDS011;10438;51.454;6.718;2022-07-23T10:11:30;6.45;;;2.67;;
20559;SDS011;10438;51.454;6.718;2022-07-23T10:13:57;4.43;;;2.05;;
20559;SDS011;10438;51.454;6.718;2022-07-23T10:16:24;5.20;;;2.10;;
20559;SDS011;10438;51.454;6.718;2022-07-23T10:18:51;5.15;;;2.10;;
20559;SDS011;10438;51.454;6.718;2022-07-23T10:21:21;5.78;;;2.30;;
20559;SDS011;10438;51.454;6.718;2022-07-23T10:29:50;5.97;;;2.20;;
20559;SDS011;10438;51.454;6.718;2022-07-23T10:32:02;7.38;;;1.95;;
20559;SDS011;10438;51.454;6.718;2022-07-23T10:37:17;6.07;;;2.13;;
20559;SDS011;10438;51.454;6.718;2022-07-23T10:40:20;4.90;;;1.80;;
20559;SDS011;10438;51.454;6.718;2022-07-23T10:42:48;5.32;;;1.75;;
20559;SDS011;10438;51.454;6.718;2022-07-23T10:48:14;4.10;;;1.55;;
20559;SDS011;10438;51.454;6.718;2022-07-23T10:50:42;7.93;;;1.90;;
20559;SDS011;10438;51.454;6.718;2022-07-23T10:53:12;6.20;;;2.20;;
20559;SDS011;10438;51.454;6.718;2022-07-23T10:55:42;5.45;;;2.20;;
20559;SDS011;10438;51.454;6.718;2022-07-23T10:58:09;6.90;;;2.17;;
20559;SDS011;10438;51.454;6.718;2022-07-23T11:00:36;6.85;;;1.45;;
20559;SDS011;10438;51.454;6.718;2022-07-23T11:03:03;3.95;;;1.70;;
20559;SDS011;10438;51.454;6.718;2022-07-23T11:05:43;8.07;;;2.10;;
20559;SDS011;10438;51.454;6.718;2022-07-23T11:08:11;4.55;;;1.85;;
20559;SDS011;10438;51.454;6.718;2022-07-23T11:31:53;4.78;;;1.80;;
20559;SDS011;10438;51.454;6.718;2022-07-23T11:34:29;4.65;;;1.60;;
20559;SDS011;10438;51.454;6.718;2022-07-23T11:36:56;7.10;;;2.22;;
20559;SDS011;10438;51.454;6.718;2022-07-23T11:39:21;4.70;;;2.00;;
20559;SDS011;10438;51.454;6.718;2022-07-23T11:41:51;6.78;;;2.22;;
20559;SDS011;10438;51.454;6.718;2022-07-23T11:44:30;5.63;;;1.80;;
20559;SDS011;10438;51.454;6.718;2022-07-23T11:47:00;7.82;;;1.98;;
20559;SDS011;10438;51.454;6.718;2022-07-23T11:49:30;4.18;;;2.00;;
20559;SDS011;10438;51.454;6.718;2022-07-23T11:52:03;7.78;;;1.80;;
20559;SDS011;10438;51.454;6.718;2022-07-23T11:54:29;3.75;;;1.35;;
20559;SDS011;10438;51.454;6.718;2022-07-23T11:56:56;4.20;;;1.92;;
20559;SDS011;10438;51.454;6.718;2022-07-23T11:59:22;6.85;;;1.95;;
20559;SDS011;10438;51.454;6.718;2022-07-23T12:02:02;5.93;;;1.90;;
20559;SDS011;10438;51.454;6.718;2022-07-23T12:04:42;2.85;;;1.50;;
20559;SDS011;10438;51.454;6.718;2022-07-23T12:12:38;2.85;;;1.30;;
20559;SDS011;10438;51.454;6.718;2022-07-23T12:15:10;6.57;;;1.95;;
20559;SDS011;10438;51.454;6.718;2022-07-23T12:17:37;3.65;;;1.90;;
20559;SDS011;10438;51.454;6.718;2022-07-23T12:20:04;3.33;;;1.40;;
20559;SDS011;10438;51.454;6.718;2022-07-23T12:22:39;4.35;;;1.60;;
20559;SDS011;10438;51.454;6.718;2022-07-23T12:25:08;3.13;;;1.23;;
20559;SDS011;10438;51.454;6.718;2022-07-23T12:27:38;4.55;;;1.45;;
20559;SDS011;10438;51.454;6.718;2022-07-23T12:32:51;3.92;;;1.80;;
20559;SDS011;10438;51.454;6.718;2022-07-23T12:35:19;3.40;;;1.60;;
20559;SDS011;10438;51.454;6.718;2022-07-23T12:37:46;5.63;;;1.70;;
20559;SDS011;10438;51.454;6.718;2022-07-23T12:40:26;4.45;;;1.90;;
20559;SDS011;10438;51.454;6.718;2022-07-23T12:43:04;3.17;;;1.40;;
20559;SDS011;10438;51.454;6.718;2022-07-23T12:48:38;3.95;;;1.70;;
20559;SDS011;10438;51.454;6.718;2022-07-23T12:53:44;5.00;;;1.63;;
20559;SDS011;10438;51.454;6.718;2022-07-23T12:56:12;3.33;;;1.40;;
20559;SDS011;10438;51.454;6.718;2022-07-23T12:58:47;4.05;;;1.98;;
20559;SDS011;10438;51.454;6.718;2022-07-23T13:01:21;4.63;;;1.85;;
20559;SDS011;10438;51.454;6.718;2022-07-23T13:04:04;7.72;;;1.80;;
20559;SDS011;10438;51.454;6.718;2022-07-23T13:06:33;4.28;;;1.90;;
20559;SDS011;10438;51.454;6.718;2022-07-23T13:09:01;4.72;;;1.98;;
20559;SDS011;10438;51.454;6.718;2022-07-23T13:11:28;6.38;;;1.67;;
20559;SDS011;10438;51.454;6.718;2022-07-23T13:13:53;4.53;;;2.03;;
20559;SDS011;10438;51.454;6.718;2022-07-23T13:16:19;8.60;;;3.22;;
20559;SDS011;10438;51.454;6.718;2022-07-23T13:18:44;6.60;;;1.92;;
20559;SDS011;10438;51.454;6.718;2022-07-23T13:21:10;5.13;;;1.83;;
20559;SDS011;10438;51.454;6.718;2022-07-23T13:23:35;3.40;;;1.80;;
20559;SDS011;10438;51.454;6.718;2022-07-23T13:26:01;3.25;;;1.60;;
20559;SDS011;10438;51.454;6.718;2022-07-23T13:28:27;5.10;;;1.67;;
20559;SDS011;10438;51.454;6.718;2022-07-23T13:30:53;5.20;;;2.13;;
20559;SDS011;10438;51.454;6.718;2022-07-23T13:33:19;4.35;;;1.83;;
20559;SDS011;10438;51.454;6.718;2022-07-23T13:35:45;3.60;;;2.13;;
20559;SDS011;10438;51.454;6.718;2022-07-23T13:38:11;5.63;;;2.03;;
20559;SDS011;10438;51.454;6.718;2022-07-23T13:40:38;4.95;;;1.90;;
20559;SDS011;10438;51.454;6.718;2022-07-23T13:43:07;4.13;;;1.60;;
20559;SDS011;10438;51.454;6.718;2022-07-23T13:45:34;3.85;;;1.90;;
20559;SDS011;10438;51.454;6.718;2022-07-23T13:48:00;6.32;;;1.98;;
20559;SDS011;10438;51.454;6.718;2022-07-23T13:50:26;4.53;;;2.17;;
20559;SDS011;10438;51.454;6.718;2022-07-23T13:52:52;6.18;;;2.45;;
20559;SDS011;10438;51.454;6.718;2022-07-23T13:55:17;6.55;;;2.50;;
20559;SDS011;10438;51.454;6.718;2022-07-23T13:57:43;7.28;;;2.20;;
20559;SDS011;10438;51.454;6.718;2022-07-23T14:00:10;11.15;;;6.60;;
20559;SDS011;10438;51.454;6.718;2022-07-23T14:02:36;5.40;;;2.90;;
20559;SDS011;10438;51.454;6.718;2022-07-23T14:05:04;6.13;;;2.70;;
20559;SDS011;10438;51.454;6.718;2022-07-23T14:07:33;6.70;;;2.90;;
20559;SDS011;10438;51.454;6.718;2022-07-23T14:09:59;6.18;;;2.47;;
20559;SDS011;10438;51.454;6.718;2022-07-23T14:12:25;6.88;;;2.88;;
20559;SDS011;10438;51.454;6.718;2022-07-23T14:14:51;7.57;;;2.97;;
20559;SDS011;10438;51.454;6.718;2022-07-23T14:17:16;8.82;;;2.50;;
20559;SDS011;10438;51.454;6.718;2022-07-23T14:19:42;5.15;;;2.70;;
20559;SDS011;10438;51.454;6.718;2022-07-23T14:22:08;8.02;;;2.22;;
20559;SDS011;10438;51.454;6.718;2022-07-23T14:24:33;7.20;;;2.67;;
20559;SDS011;10438;51.454;6.718;2022-07-23T14:27:00;8.57;;;2.90;;
20559;SDS011;10438;51.454;6.718;2022-07-23T14:29:26;8.90;;;2.33;;
20559;SDS011;10438;51.454;6.718;2022-07-23T14:31:52;7.25;;;2.38;;
20559;SDS011;10438;51.454;6.718;2022-07-23T14:34:17;6.95;;;2.00;;
20559;SDS011;10438;51.454;6.718;2022-07-23T14:36:43;4.63;;;2.15;;
20559;SDS011;10438;51.454;6.718;2022-07-23T14:39:08;9.15;;;2.20;;
20559;SDS011;10438;51.454;6.718;2022-07-23T14:41:34;4.57;;;1.88;;
20559;SDS011;10438;51.454;6.718;2022-07-23T14:44:00;5.28;;;2.08;;
20559;SDS011;10438;51.454;6.718;2022-07-23T14:46:27;4.30;;;1.73;;
20559;SDS011;10438;51.454;6.718;2022-07-23T14:48:52;5.28;;;2.08;;
20559;SDS011;10438;51.454;6.718;2022-07-23T14:51:18;5.80;;;2.00;;
20559;SDS011;10438;51.454;6.718;2022-07-23T14:53:43;4.28;;;1.90;;
20559;SDS011;10438;51.454;6.718;2022-07-23T14:56:09;4.60;;;1.98;;
20559;SDS011;10438;51.454;6.718;2022-07-23T14:58:34;4.05;;;1.90;;
20559;SDS011;10438;51.454;6.718;2022-07-23T15:01:00;3.65;;;2.15;;
20559;SDS011;10438;51.454;6.718;2022-07-23T15:03:25;3.92;;;1.70;;
20559;SDS011;10438;51.454;6.718;2022-07-23T15:05:51;4.40;;;1.90;;
20559;SDS011;10438;51.454;6.718;2022-07-23T15:08:17;5.82;;;2.03;;
20559;SDS011;10438;51.454;6.718;2022-07-23T15:10:42;6.95;;;1.90;;
20559;SDS011;10438;51.454;6.718;2022-07-23T15:13:08;5.63;;;2.20;;
20559;SDS011;10438;51.454;6.718;2022-07-23T15:15:34;4.95;;;2.67;;
20559;SDS011;10438;51.454;6.718;2022-07-23T15:17:59;5.03;;;2.50;;
20559;SDS011;10438;51.454;6.718;2022-07-23T15:20:25;5.93;;;2.38;;
20559;SDS011;10438;51.454;6.718;2022-07-23T15:22:50;7.85;;;2.60;;
20559;SDS011;10438;51.454;6.718;2022-07-23T15:25:16;9.30;;;2.88;;
20559;SDS011;10438;51.454;6.718;2022-07-23T15:27:41;14.02;;;2.85;;
20559;SDS011;10438;51.454;6.718;2022-07-23T15:30:07;7.65;;;2.90;;